Time;durP1;ratioP1;P1;durP2;ratioP2;P2;SDS_P1;SDS_P2;PMS_P1;PMS_P2;Temp;Humidity;BMP_temperature;BMP_pressure;BME280_temperature;BME280_humidity;BME280_pressure;Samples;Min_cycle;Max_cycle;Signal;HPM_P1;HPM_P2
2023/10/25 00:01:34;;;;;;;3.80;2.80;;;;;;;18.34;57.58;96993.77;103594;1282;61286;-35
2023/10/25 00:04:01;;;;;;;3.00;2.80;;;;;;;18.33;57.58;96989.27;103791;1280;61326;-35
2023/10/25 00:06:28;;;;;;;3.30;2.80;;;;;;;18.33;57.62;96988.19;103574;1283;74614;-35
2023/10/25 00:08:55;;;;;;;4.10;3.00;;;;;;;18.33;57.58;96984.16;103526;1283;65612;-35
2023/10/25 00:11:22;;;;;;;4.20;3.30;;;;;;;18.34;57.62;96982.30;103561;1280;72693;-35
2023/10/25 00:13:49;;;;;;;4.70;3.30;;;;;;;18.34;57.53;96979.75;103468;1286;61314;-35
2023/10/25 00:16:16;;;;;;;3.40;2.80;;;;;;;18.33;57.50;96978.73;103723;1280;61399;-35
2023/10/25 00:18:43;;;;;;;3.10;2.70;;;;;;;18.33;57.64;96977.11;103524;1280;74562;-35
2023/10/25 00:21:10;;;;;;;3.60;3.10;;;;;;;18.33;57.48;96971.38;103663;1283;66108;-35
2023/10/25 00:23:36;;;;;;;3.50;2.90;;;;;;;18.33;57.53;96965.95;103864;1283;72751;-35
2023/10/25 00:26:03;;;;;;;3.10;2.80;;;;;;;18.32;57.58;96961.30;103785;1282;61303;-35
2023/10/25 00:28:30;;;;;;;3.80;2.70;;;;;;;18.32;57.58;96956.19;103550;1282;61283;-35
2023/10/25 00:30:56;;;;;;;4.70;2.90;;;;;;;18.32;57.53;96953.23;103300;1283;74752;-37
2023/10/25 00:33:24;;;;;;;4.30;2.90;;;;;;;18.32;57.60;96948.05;103450;1282;66034;-35
2023/10/25 00:35:50;;;;;;;3.40;3.10;;;;;;;18.32;57.54;96942.64;103332;1280;72628;-35
2023/10/25 00:38:17;;;;;;;3.40;2.80;;;;;;;18.31;57.47;96936.05;103367;1282;61299;-35
2023/10/25 00:40:44;;;;;;;3.10;2.70;;;;;;;18.32;57.49;96939.69;103803;1278;61361;-35
2023/10/25 00:43:15;;;;;;;4.50;2.90;;;;;;;18.32;57.54;96939.60;103704;1283;74508;-35
2023/10/25 00:46:05;;;;;;;3.10;2.60;;;;;;;18.31;57.55;96936.49;103538;1282;66041;-35
2023/10/25 00:48:32;;;;;;;5.20;3.20;;;;;;;18.31;57.49;96928.52;103548;1281;71567;-35
2023/10/25 00:51:00;;;;;;;3.50;3.10;;;;;;;18.31;57.50;96932.48;103499;1282;61330;-35
2023/10/25 00:53:26;;;;;;;4.90;2.90;;;;;;;18.31;57.45;96935.95;104516;1280;61278;-37
2023/10/25 00:55:54;;;;;;;3.00;2.70;;;;;;;18.30;57.49;96926.73;105635;1283;73300;-37
2023/10/25 00:58:21;;;;;;;3.60;2.90;;;;;;;18.31;57.41;96924.03;107170;1278;66654;-37
2023/10/25 01:00:49;;;;;;;4.00;3.00;;;;;;;18.31;57.50;96921.95;107188;1279;71406;-37
2023/10/25 01:03:16;;;;;;;3.70;3.00;;;;;;;18.32;57.48;96922.73;107143;1280;59030;-37
2023/10/25 01:05:43;;;;;;;4.20;3.10;;;;;;;18.33;57.47;96922.98;107325;1280;60110;-36
2023/10/25 01:08:09;;;;;;;3.00;2.70;;;;;;;18.34;57.38;96917.95;104407;1278;73274;-36
2023/10/25 01:10:36;;;;;;;3.10;2.80;;;;;;;18.35;57.37;96915.80;103718;1282;66114;-36
2023/10/25 01:13:02;;;;;;;3.30;2.80;;;;;;;18.36;57.35;96918.23;103383;1280;72789;-36
2023/10/25 01:15:29;;;;;;;3.40;2.90;;;;;;;18.37;57.29;96908.39;104205;1283;61391;-36
2023/10/25 01:17:56;;;;;;;3.30;2.90;;;;;;;18.37;57.31;96903.83;103855;1282;61402;-36
2023/10/25 01:20:24;;;;;;;3.30;2.60;;;;;;;18.36;57.25;96902.13;104253;1279;74625;-36
2023/10/25 01:22:50;;;;;;;2.90;2.60;;;;;;;18.36;57.21;96896.61;103529;1282;64649;-36
2023/10/25 01:25:17;;;;;;;3.80;2.80;;;;;;;18.36;57.26;96894.98;103444;1282;72509;-35
2023/10/25 01:27:44;;;;;;;3.10;2.80;;;;;;;18.36;57.18;96886.91;103613;1282;61301;-35
2023/10/25 01:30:12;;;;;;;3.50;3.20;;;;;;;18.36;57.17;96878.79;103512;1280;61311;-35
2023/10/25 01:32:39;;;;;;;3.80;2.90;;;;;;;18.35;57.13;96876.60;103848;1283;74709;-37
2023/10/25 01:35:07;;;;;;;3.20;2.90;;;;;;;18.35;57.11;96873.65;103752;1282;65777;-35
2023/10/25 01:37:34;;;;;;;3.60;3.30;;;;;;;18.34;57.14;96872.95;103556;1281;70602;-36
2023/10/25 01:40:01;;;;;;;3.70;3.20;;;;;;;18.34;57.08;96869.48;103629;1282;61305;-35
2023/10/25 01:42:28;;;;;;;4.20;3.10;;;;;;;18.34;57.19;96870.23;103533;1279;61410;-35
2023/10/25 01:44:55;;;;;;;3.40;3.00;;;;;;;18.33;57.17;96864.03;103474;1278;74470;-35
2023/10/25 01:47:22;;;;;;;3.80;3.00;;;;;;;18.33;57.18;96857.13;103461;1280;66039;-35
2023/10/25 01:49:49;;;;;;;5.00;3.00;;;;;;;18.32;57.18;96856.82;103631;1280;72680;-35
2023/10/25 01:52:16;;;;;;;4.20;3.20;;;;;;;18.32;57.14;96849.00;103511;1285;61268;-35
2023/10/25 01:54:45;;;;;;;3.40;2.80;;;;;;;18.31;57.14;96844.80;103933;1280;61307;-35
2023/10/25 01:57:12;;;;;;;3.80;3.00;;;;;;;18.31;57.15;96843.55;103758;1282;74454;-35
2023/10/25 01:59:40;;;;;;;3.20;2.90;;;;;;;18.30;57.11;96840.23;103514;1282;66217;-35
2023/10/25 02:02:07;;;;;;;4.00;3.30;;;;;;;18.30;57.17;96828.52;103437;1280;72422;-35
2023/10/25 02:04:34;;;;;;;4.50;3.20;;;;;;;18.30;57.19;96825.59;103451;1285;61393;-35
2023/10/25 02:07:02;;;;;;;4.20;3.20;;;;;;;18.29;57.13;96825.42;103575;1280;61419;-37
2023/10/25 02:09:29;;;;;;;4.90;3.10;;;;;;;18.29;57.10;96825.17;103557;1282;74526;-35
2023/10/25 02:11:56;;;;;;;4.30;3.20;;;;;;;18.29;57.23;96821.48;103787;1282;66012;-34
2023/10/25 02:14:22;;;;;;;4.00;2.90;;;;;;;18.29;57.19;96815.58;103624;1280;72721;-35
2023/10/25 02:16:49;;;;;;;4.30;3.00;;;;;;;18.28;57.19;96802.02;103471;1283;61286;-35
2023/10/25 02:19:16;;;;;;;4.40;3.00;;;;;;;18.28;57.11;96808.83;103604;1280;61286;-35
2023/10/25 02:21:43;;;;;;;4.50;3.00;;;;;;;18.28;57.15;96809.36;103580;1280;74290;-35
2023/10/25 02:24:17;;;;;;;4.50;3.10;;;;;;;18.27;57.16;96795.98;103475;1282;65861;-35
2023/10/25 02:26:44;;;;;;;3.50;3.10;;;;;;;18.27;57.20;96794.88;103597;1280;72592;-35
2023/10/25 02:29:10;;;;;;;4.20;3.30;;;;;;;18.27;57.15;96787.22;103553;1282;61231;-35
2023/10/25 02:31:37;;;;;;;3.90;3.20;;;;;;;18.27;57.22;96785.98;103515;1280;61381;-35
2023/10/25 02:34:04;;;;;;;4.30;2.90;;;;;;;18.26;57.18;96783.17;103611;1280;74655;-35
2023/10/25 02:36:31;;;;;;;3.70;3.00;;;;;;;18.26;57.19;96781.61;103539;1282;66165;-35
2023/10/25 02:38:58;;;;;;;3.40;3.10;;;;;;;18.26;57.14;96781.08;103430;1280;72497;-35
2023/10/25 02:41:25;;;;;;;3.70;3.30;;;;;;;18.26;57.18;96781.62;103308;1282;62002;-35
2023/10/25 02:43:54;;;;;;;3.90;3.00;;;;;;;18.26;57.16;96778.06;103331;1280;61461;-35
2023/10/25 02:46:21;;;;;;;3.70;3.20;;;;;;;18.26;57.14;96778.44;103381;1280;74371;-35
2023/10/25 02:48:49;;;;;;;3.10;2.80;;;;;;;18.25;57.13;96774.02;103672;1282;66351;-35
2023/10/25 02:51:16;;;;;;;4.40;3.30;;;;;;;18.25;57.14;96774.64;103882;1280;72501;-35
2023/10/25 02:53:43;;;;;;;3.50;3.10;;;;;;;18.25;57.17;96770.77;103755;1283;61374;-35
2023/10/25 02:56:09;;;;;;;3.20;2.70;;;;;;;18.25;57.12;96769.22;103862;1280;61282;-35
2023/10/25 02:58:36;;;;;;;5.40;3.00;;;;;;;18.25;57.03;96775.11;103768;1283;74361;-35
2023/10/25 03:01:03;;;;;;;4.50;3.10;;;;;;;18.25;57.08;96767.98;103595;1280;65482;-35
2023/10/25 03:03:33;;;;;;;3.60;2.80;;;;;;;18.25;57.08;96764.11;103611;1280;72482;-35
2023/10/25 03:05:59;;;;;;;3.80;3.20;;;;;;;18.24;57.08;96757.98;103655;1282;61346;-35
2023/10/25 03:08:27;;;;;;;4.70;3.50;;;;;;;18.24;57.08;96746.59;103815;1280;61313;-35
2023/10/25 03:10:54;;;;;;;7.40;3.40;;;;;;;18.23;57.08;96738.46;103747;1281;74519;-35
2023/10/25 03:13:20;;;;;;;4.40;3.30;;;;;;;18.23;57.09;96729.48;103886;1282;66057;-35
2023/10/25 03:15:48;;;;;;;3.90;3.20;;;;;;;18.23;57.12;96722.21;103673;1280;72925;-35
2023/10/25 03:18:14;;;;;;;3.50;2.90;;;;;;;18.23;57.09;96710.90;103686;1282;61279;-35
2023/10/25 03:20:41;;;;;;;3.90;3.10;;;;;;;18.22;57.04;96703.39;103479;1280;61320;-35
2023/10/25 03:23:08;;;;;;;3.90;3.20;;;;;;;18.22;57.05;96700.20;103543;1280;74662;-35
2023/10/25 03:25:34;;;;;;;5.10;3.10;;;;;;;18.23;57.06;96694.26;103502;1282;66384;-35
2023/10/25 03:28:01;;;;;;;4.80;3.00;;;;;;;18.23;57.10;96686.66;103499;1280;72727;-35
2023/10/25 03:30:28;;;;;;;5.90;3.00;;;;;;;18.21;57.08;96679.75;103424;1280;61340;-35
2023/10/25 03:32:54;;;;;;;4.20;3.30;;;;;;;18.21;57.10;96688.64;103575;1280;61394;-35
2023/10/25 03:35:21;;;;;;;3.60;3.10;;;;;;;18.21;57.16;96696.23;103545;1282;74573;-35
2023/10/25 03:37:47;;;;;;;3.70;3.00;;;;;;;18.22;57.09;96696.16;103534;1282;66627;-35
2023/10/25 03:40:14;;;;;;;3.10;2.80;;;;;;;18.21;57.06;96687.09;105022;1282;72655;-37
2023/10/25 03:42:41;;;;;;;4.20;3.40;;;;;;;18.21;57.05;96685.62;105294;1280;61337;-36
2023/10/25 03:45:09;;;;;;;3.60;3.20;;;;;;;18.21;57.04;96685.55;103691;1280;61281;-36
2023/10/25 03:47:37;;;;;;;3.50;2.90;;;;;;;18.21;57.05;96679.03;103941;1282;74705;-37
2023/10/25 03:50:06;;;;;;;4.20;3.20;;;;;;;18.21;57.03;96672.55;103738;1283;66169;-35
2023/10/25 03:52:33;;;;;;;4.20;3.40;;;;;;;18.21;57.09;96669.60;103885;1280;72691;-35
2023/10/25 03:55:00;;;;;;;4.00;3.30;;;;;;;18.21;57.02;96659.52;103741;1283;61307;-35
2023/10/25 03:57:26;;;;;;;3.80;3.10;;;;;;;18.21;57.15;96658.83;103823;1282;61380;-37
2023/10/25 03:59:53;;;;;;;3.50;3.10;;;;;;;18.22;56.97;96659.85;103429;1280;74534;-37
2023/10/25 04:02:20;;;;;;;3.60;3.20;;;;;;;18.21;56.96;96661.39;103539;1282;65819;-36
2023/10/25 04:04:47;;;;;;;4.10;3.10;;;;;;;18.21;56.99;96661.54;103487;1280;72607;-35
2023/10/25 04:07:14;;;;;;;3.30;3.00;;;;;;;18.21;56.99;96662.55;103547;1282;61308;-35
2023/10/25 04:09:40;;;;;;;3.90;3.20;;;;;;;18.21;57.03;96664.80;103584;1280;61334;-35
2023/10/25 04:12:12;;;;;;;3.10;2.70;;;;;;;18.20;56.97;96652.39;103515;1282;74479;-35
2023/10/25 04:14:43;;;;;;;4.20;3.10;;;;;;;18.20;57.03;96659.05;103349;1283;65901;-35
2023/10/25 04:17:09;;;;;;;4.00;3.10;;;;;;;18.19;56.98;96654.63;103486;1280;73216;-35
2023/10/25 04:19:37;;;;;;;3.30;3.00;;;;;;;18.19;56.95;96655.02;103592;1282;61286;-35
2023/10/25 05:18:06;;;;;;;3.30;3.00;;;;;;;18.08;57.34;96579.59;103666;1279;61329;-40
2023/10/25 05:20:34;;;;;;;5.40;3.70;;;;;;;18.10;57.53;96574.27;103937;1279;74731;-36
2023/10/25 05:23:02;;;;;;;7.50;3.20;;;;;;;18.12;57.56;96571.88;103620;1282;66476;-35
2023/10/25 05:25:30;;;;;;;6.80;3.50;;;;;;;18.13;57.51;96565.55;103940;1279;72883;-35
2023/10/25 05:27:57;;;;;;;4.40;3.90;;;;;;;18.15;57.69;96567.80;103639;1282;61305;-35
2023/10/25 05:30:24;;;;;;;6.10;4.00;;;;;;;18.15;57.71;96562.94;104109;1282;61509;-36
2023/10/25 05:32:53;;;;;;;4.00;3.60;;;;;;;18.16;57.68;96548.63;103627;1280;74655;-36
2023/10/25 05:35:20;;;;;;;5.10;3.90;;;;;;;18.16;57.75;96549.94;103731;1282;65143;-36
2023/10/25 05:37:48;;;;;;;5.30;4.10;;;;;;;18.16;57.74;96548.63;103661;1282;73277;-36
2023/10/25 05:40:15;;;;;;;5.30;4.30;;;;;;;18.17;57.97;96541.50;103542;1285;62206;-36
2023/10/25 05:42:47;;;;;;;5.80;4.20;;;;;;;18.18;58.09;96534.70;103956;1282;61378;-36
2023/10/25 05:45:17;;;;;;;6.60;4.30;;;;;;;18.19;58.33;96534.31;103705;1282;75563;-37
2023/10/25 05:47:44;;;;;;;10.00;4.50;;;;;;;18.20;58.50;96531.77;103704;1282;67235;-36
2023/10/25 05:50:11;;;;;;;6.80;4.20;;;;;;;18.23;58.95;96526.23;103707;1280;72564;-34
2023/10/25 05:52:44;;;;;;;6.30;4.40;;;;;;;18.27;59.61;96524.94;103611;1280;61294;-36
2023/10/25 05:55:14;;;;;;;5.70;4.10;;;;;;;18.31;60.02;96520.11;103315;1280;61320;-35
2023/10/25 06:14:09;;;;;;;6.00;4.10;;;;;;;18.41;59.28;96488.11;103517;1280;61276;-36
2023/10/25 06:16:35;;;;;;;7.60;4.60;;;;;;;18.41;59.12;96486.34;103568;1279;61195;-35
2023/10/25 06:19:02;;;;;;;6.90;4.40;;;;;;;18.40;59.23;96479.91;103581;1282;74698;-34
2023/10/25 06:21:29;;;;;;;5.10;4.50;;;;;;;18.40;59.23;96478.43;103466;1282;65562;-36
2023/10/25 06:23:56;;;;;;;5.00;4.20;;;;;;;18.41;59.36;96475.33;103570;1280;72739;-36
2023/10/25 06:26:24;;;;;;;5.40;4.40;;;;;;;18.40;59.35;96473.02;104514;1280;61288;-36
2023/10/25 06:28:51;;;;;;;5.60;4.30;;;;;;;18.41;59.28;96474.34;105082;1279;61246;-36
2023/10/25 06:31:18;;;;;;;6.10;4.40;;;;;;;18.41;59.39;96472.33;103513;1280;74492;-37
2023/10/25 06:33:45;;;;;;;5.80;4.50;;;;;;;18.42;59.32;96470.30;103869;1279;67298;-36
2023/10/25 06:36:12;;;;;;;6.20;4.50;;;;;;;18.42;59.41;96470.08;103617;1280;72648;-37
2023/10/25 06:38:40;;;;;;;8.10;4.60;;;;;;;18.42;59.36;96466.44;103624;1282;61339;-36
2023/10/25 06:41:15;;;;;;;8.50;4.60;;;;;;;18.43;59.31;96466.77;104971;1279;61304;-36
2023/10/25 06:43:42;;;;;;;6.10;4.20;;;;;;;18.44;59.61;96468.08;107320;1279;73455;-36
2023/10/25 06:46:10;;;;;;;7.60;4.70;;;;;;;18.46;60.37;96463.31;103920;1279;66129;-43
2023/10/25 06:48:40;;;;;;;7.40;4.70;;;;;;;18.49;61.00;96465.28;107294;1279;71820;-45
2023/10/25 06:51:07;;;;;;;11.50;4.50;;;;;;;18.55;61.38;96464.30;103933;1280;61246;-43
2023/10/25 06:53:38;;;;;;;9.20;5.00;;;;;;;18.60;61.65;96465.73;104612;1279;61196;-42
2023/10/25 06:56:05;;;;;;;7.50;4.70;;;;;;;18.66;61.97;96470.57;104654;1280;74483;-43
2023/10/25 06:58:32;;;;;;;7.80;4.60;;;;;;;18.69;62.08;96465.48;106327;1279;65739;-42
2023/10/25 07:00:59;;;;;;;11.30;4.70;;;;;;;18.71;62.27;96466.11;103736;1279;71279;-42
2023/10/25 07:03:35;;;;;;;5.20;4.60;;;;;;;18.74;62.25;96458.99;103470;1282;61214;-43
2023/10/25 07:06:03;;;;;;;12.80;4.60;;;;;;;18.76;62.26;96456.37;103769;1279;61295;-49
2023/10/25 07:08:30;;;;;;;11.00;4.20;;;;;;;18.77;62.55;96456.15;103657;1280;74583;-48
2023/10/25 07:10:57;;;;;;;9.20;4.80;;;;;;;18.81;63.13;96453.99;103601;1282;66139;-41
2023/10/25 07:13:26;;;;;;;8.10;4.30;;;;;;;18.86;63.52;96456.42;103558;1280;72668;-48
2023/10/25 07:15:54;;;;;;;7.90;4.10;;;;;;;18.93;64.12;96450.80;103531;1280;61673;-55
2023/10/25 07:18:21;;;;;;;6.80;3.80;;;;;;;18.98;64.41;96447.35;103479;1279;61279;-49
2023/10/25 07:31:05;;;;;;;10.60;4.00;;;;;;;19.32;64.48;96442.19;104014;1280;72677;-55
2023/10/25 07:33:32;;;;;;;9.30;3.80;;;;;;;19.39;64.39;96440.91;103787;1280;61269;-53
2023/10/25 07:35:59;;;;;;;5.40;3.50;;;;;;;19.46;64.25;96440.77;103618;1278;61381;-47
2023/10/25 07:38:26;;;;;;;9.60;4.10;;;;;;;19.50;64.21;96444.36;103648;1277;73699;-47
2023/10/25 07:40:54;;;;;;;12.80;4.30;;;;;;;19.54;64.06;96436.98;103668;1280;65943;-52
2023/10/25 07:43:21;;;;;;;8.70;4.10;;;;;;;19.57;64.04;96434.20;103821;1277;72644;-47
2023/10/25 07:45:48;;;;;;;9.10;4.20;;;;;;;19.60;63.98;96434.30;103727;1280;61329;-49
2023/10/25 07:48:15;;;;;;;8.40;3.70;;;;;;;19.62;63.96;96440.42;103728;1278;61303;-48
2023/10/25 07:50:41;;;;;;;6.00;3.80;;;;;;;19.64;63.99;96443.30;103710;1280;73512;-45
2023/10/25 07:53:08;;;;;;;7.20;3.90;;;;;;;19.66;63.99;96438.73;103664;1276;65387;-45
2023/10/25 07:55:40;;;;;;;4.40;3.70;;;;;;;19.68;63.90;96438.42;104384;1282;72673;-48
2023/10/25 07:58:27;;;;;;;7.70;3.70;;;;;;;19.69;63.74;96433.37;103669;1280;61276;-45
2023/10/25 08:00:55;;;;;;;7.90;3.90;;;;;;;19.70;63.74;96436.17;103866;1276;61258;-63
2023/10/25 08:03:22;;;;;;;6.80;4.00;;;;;;;19.72;63.76;96436.11;103608;1283;72768;-48
2023/10/25 08:05:49;;;;;;;7.00;4.20;;;;;;;19.76;63.90;96444.08;103779;1283;65489;-51
2023/10/25 08:08:17;;;;;;;5.80;3.70;;;;;;;19.81;63.80;96440.22;103808;1280;73163;-55
2023/10/25 08:10:43;;;;;;;6.30;4.00;;;;;;;19.86;63.66;96440.23;103707;1283;61375;-50
2023/10/25 08:13:10;;;;;;;8.90;4.20;;;;;;;19.89;63.47;96434.95;103627;1276;61255;-57
2023/10/25 08:15:37;;;;;;;7.00;4.50;;;;;;;19.92;63.33;96433.00;104031;1280;74624;-47
2023/10/25 08:18:05;;;;;;;8.10;3.80;;;;;;;19.94;62.96;96431.38;103770;1280;67069;-50
2023/10/25 08:20:36;;;;;;;6.70;4.20;;;;;;;19.95;62.78;96425.56;103995;1277;73638;-56
2023/10/25 08:23:03;;;;;;;9.20;4.50;;;;;;;19.97;62.63;96427.66;103852;1277;61294;-47
2023/10/25 08:25:33;;;;;;;7.40;4.10;;;;;;;19.98;62.64;96423.94;103335;1280;61249;-49
2023/10/25 08:28:00;;;;;;;6.50;4.00;;;;;;;19.97;62.47;96416.23;103924;1280;75374;-51
2023/10/25 08:30:28;;;;;;;7.30;4.20;;;;;;;19.98;62.39;96407.94;103639;1280;65581;-51
2023/10/25 08:32:54;;;;;;;7.70;4.20;;;;;;;19.98;62.20;96398.71;103816;1277;72488;-50
2023/10/25 08:35:21;;;;;;;8.50;4.40;;;;;;;19.97;62.20;96397.63;103550;1283;61268;-52
2023/10/25 08:37:48;;;;;;;6.90;4.60;;;;;;;19.96;62.29;96394.82;103779;1279;61185;-52
2023/10/25 08:40:15;;;;;;;5.10;4.00;;;;;;;19.96;62.43;96391.33;103933;1278;74636;-50
2023/10/25 08:48:20;;;;;;;6.10;3.60;;;;;;;19.95;62.51;96385.17;103737;1277;73734;-48
2023/10/25 08:50:47;;;;;;;10.40;3.90;;;;;;;19.95;62.69;96384.88;103645;1283;226950;-59
2023/10/25 08:53:14;;;;;;;7.50;4.30;;;;;;;19.95;62.70;96385.80;103788;1276;61280;-58
2023/10/25 08:55:41;;;;;;;9.60;4.20;;;;;;;19.95;62.75;96380.69;103659;1277;75469;-47
2023/10/25 08:58:07;;;;;;;5.60;4.00;;;;;;;19.95;62.78;96378.66;103967;1279;64765;-54
2023/10/25 09:00:34;;;;;;;12.00;4.10;;;;;;;19.96;62.75;96373.31;104060;1276;72674;-50
2023/10/25 09:03:31;;;;;;;5.70;3.70;;;;;;;19.96;62.82;96368.19;103963;1280;62056;-55
2023/10/25 09:06:05;;;;;;;8.10;3.90;;;;;;;19.96;62.72;96362.14;103813;1276;61316;-61
2023/10/25 09:08:32;;;;;;;7.10;3.90;;;;;;;19.97;62.83;96364.77;103841;1280;74294;-44
2023/10/25 09:11:01;;;;;;;7.40;3.70;;;;;;;19.97;62.78;96358.17;103883;1276;66204;-49
2023/10/25 09:13:29;;;;;;;8.00;3.90;;;;;;;19.97;62.90;96355.23;103842;1277;72434;-50
2023/10/25 09:16:22;;;;;;;5.20;4.10;;;;;;;19.98;62.88;96358.55;103917;1280;61275;-44
2023/10/25 09:18:49;;;;;;;6.10;3.90;;;;;;;19.98;62.99;96352.42;103783;1277;61708;-46
2023/10/25 09:21:16;;;;;;;9.60;3.50;;;;;;;19.98;63.12;96351.57;104627;1279;74557;-48
2023/10/25 09:23:43;;;;;;;7.00;3.90;;;;;;;19.99;63.21;96350.48;104193;1280;66300;-45
2023/10/25 09:26:16;;;;;;;7.00;3.80;;;;;;;20.00;63.27;96346.98;103637;1277;73648;-45
2023/10/25 09:28:47;;;;;;;7.40;3.30;;;;;;;20.01;63.37;96340.08;104007;1278;61385;-50
2023/10/25 09:31:24;;;;;;;7.90;3.70;;;;;;;20.03;63.43;96343.57;103778;1278;61383;-47
2023/10/25 09:33:51;;;;;;;9.90;3.60;;;;;;;20.04;63.50;96340.30;103926;1276;73521;-47
2023/10/25 09:36:21;;;;;;;7.90;3.60;;;;;;;20.04;63.59;96337.59;103701;1279;66043;-42
2023/10/25 09:38:49;;;;;;;12.90;3.80;;;;;;;20.06;63.67;96334.40;103722;1277;71868;-49
2023/10/25 09:41:17;;;;;;;7.50;4.10;;;;;;;20.07;63.74;96330.42;103866;1280;61451;-45
2023/10/25 09:43:46;;;;;;;5.70;3.30;;;;;;;20.08;63.77;96324.07;103812;1279;61303;-46
2023/10/25 09:46:18;;;;;;;4.60;3.60;;;;;;;20.10;63.85;96321.35;103785;1277;75835;-47
2023/10/25 09:48:55;;;;;;;5.20;4.00;;;;;;;20.11;63.75;96322.13;103832;1278;66082;-44
2023/10/25 09:52:07;;;;;;;4.90;3.30;;;;;;;20.12;63.76;96316.84;103792;1276;72718;-45
2023/10/25 09:54:35;;;;;;;7.00;3.00;;;;;;;20.13;63.72;96317.38;103653;1277;61241;-48
2023/10/25 09:57:02;;;;;;;11.30;3.70;;;;;;;20.14;63.63;96314.64;103721;1277;61461;-46
2023/10/25 09:59:33;;;;;;;7.60;3.70;;;;;;;20.16;63.74;96316.67;103818;1277;74359;-52
2023/10/25 10:02:01;;;;;;;4.60;3.70;;;;;;;20.16;63.68;96310.08;103636;1282;65575;-46
2023/10/25 10:04:45;;;;;;;5.10;3.40;;;;;;;20.17;63.79;96306.13;103727;1277;71918;-44
2023/10/25 10:07:14;;;;;;;5.40;3.20;;;;;;;20.18;63.76;96303.94;103842;1280;61316;-48
2023/10/25 10:09:50;;;;;;;5.30;3.60;;;;;;;20.19;63.77;96303.00;103854;1276;61383;-43
2023/10/25 10:12:17;;;;;;;4.60;3.30;;;;;;;20.19;63.81;96299.90;103861;1280;74625;-47
2023/10/25 10:14:44;;;;;;;6.60;3.70;;;;;;;20.19;63.64;96297.80;103798;1280;65374;-45
2023/10/25 10:17:14;;;;;;;4.80;3.70;;;;;;;20.20;63.70;96291.89;103929;1276;72685;-48
2023/10/25 10:19:42;;;;;;;5.30;3.40;;;;;;;20.21;63.89;96292.82;103690;1282;61378;-48
2023/10/25 10:22:18;;;;;;;8.20;3.60;;;;;;;20.21;63.90;96293.29;103868;1277;61622;-48
2023/10/25 10:24:45;;;;;;;6.10;3.60;;;;;;;20.21;63.91;96290.27;103722;1277;74800;-48
2023/10/25 10:27:20;;;;;;;5.20;3.40;;;;;;;20.21;63.93;96288.55;103904;1276;66105;-49
2023/10/25 10:29:48;;;;;;;6.50;3.20;;;;;;;20.21;63.79;96278.23;104348;1277;71800;-47
2023/10/25 10:32:16;;;;;;;8.20;3.40;;;;;;;20.21;63.74;96280.23;103996;1283;61357;-49
2023/10/25 10:34:53;;;;;;;6.40;3.50;;;;;;;20.20;63.70;96278.08;103861;1277;61447;-48
2023/10/25 10:37:21;;;;;;;9.30;3.60;;;;;;;20.20;63.46;96275.52;104059;1277;74638;-49
2023/10/25 10:39:57;;;;;;;6.40;3.40;;;;;;;20.20;63.33;96272.56;104024;1280;64275;-49
2023/10/25 10:42:30;;;;;;;6.30;3.50;;;;;;;20.18;63.26;96274.27;103834;1277;72761;-48
2023/10/25 10:45:02;;;;;;;5.20;3.50;;;;;;;20.18;62.97;96270.32;103839;1277;61737;-48
2023/10/25 10:47:56;;;;;;;8.60;4.00;;;;;;;20.17;62.90;96265.96;104083;1279;61158;-49
2023/10/25 10:50:24;;;;;;;4.00;3.00;;;;;;;20.16;62.85;96267.60;104398;1277;74483;-42
2023/10/25 10:52:54;;;;;;;10.00;3.70;;;;;;;20.14;62.79;96262.55;103746;1282;67030;-46
2023/10/25 10:55:23;;;;;;;6.40;3.30;;;;;;;20.13;62.96;96263.64;103951;1281;72666;-44
2023/10/25 10:57:50;;;;;;;7.20;3.40;;;;;;;20.13;62.94;96267.30;103778;1280;61591;-45
2023/10/25 11:00:34;;;;;;;4.70;3.00;;;;;;;20.12;63.05;96259.36;104009;1277;61347;-47
2023/10/25 11:03:02;;;;;;;6.40;3.00;;;;;;;20.12;63.34;96257.74;103895;1280;74603;-43
2023/10/25 11:05:35;;;;;;;11.60;3.10;;;;;;;20.13;63.68;96257.83;103707;1280;66868;-46
2023/10/25 11:08:03;;;;;;;6.60;3.30;;;;;;;20.15;63.97;96254.48;103834;1276;72564;-50
2023/10/25 11:10:30;;;;;;;7.30;3.30;;;;;;;20.19;64.37;96257.65;103831;1277;61137;-48
2023/10/25 11:12:58;;;;;;;6.10;2.80;;;;;;;20.25;64.71;96256.73;103364;1276;61338;-48
2023/10/25 11:15:26;;;;;;;8.10;3.20;;;;;;;20.33;64.89;96257.70;103911;1283;73397;-44
2023/10/25 11:17:53;;;;;;;7.60;3.50;;;;;;;20.43;65.02;96256.58;103693;1282;66330;-45
2023/10/25 11:20:23;;;;;;;5.40;3.30;;;;;;;20.53;64.92;96258.01;104419;1276;72476;-44
2023/10/25 11:22:51;;;;;;;5.80;3.50;;;;;;;20.63;64.45;96259.90;103851;1280;61424;-45
2023/10/25 11:25:21;;;;;;;5.70;3.20;;;;;;;20.70;64.24;96252.64;103587;1277;61419;-48
2023/10/25 11:27:50;;;;;;;6.80;3.30;;;;;;;20.77;64.21;96252.29;104374;1280;76157;-46
2023/10/25 11:30:17;;;;;;;5.10;3.30;;;;;;;20.83;64.10;96256.69;103641;1280;66308;-50
2023/10/25 11:32:49;;;;;;;3.90;2.80;;;;;;;20.88;64.08;96252.99;103926;1277;72535;-50
2023/10/25 11:35:23;;;;;;;4.20;3.00;;;;;;;20.91;63.86;96251.73;103969;1277;61349;-48
2023/10/25 11:37:51;;;;;;;8.30;3.40;;;;;;;20.94;64.00;96256.39;103672;1277;61315;-48
2023/10/25 11:40:18;;;;;;;11.70;3.50;;;;;;;20.96;64.15;96261.20;106590;1277;73557;-47
2023/10/25 11:42:46;;;;;;;4.80;3.20;;;;;;;20.96;64.15;96253.48;103949;1277;66579;-48
2023/10/25 11:45:17;;;;;;;4.50;3.00;;;;;;;20.93;64.13;96259.34;103713;1277;72370;-51
2023/10/25 11:47:45;;;;;;;7.60;3.30;;;;;;;20.90;63.99;96254.23;103599;1283;61303;-49
2023/10/25 11:50:13;;;;;;;10.70;3.30;;;;;;;20.86;64.16;96251.92;103767;1278;61171;-48
2023/10/25 11:52:39;;;;;;;5.40;3.70;;;;;;;20.83;64.10;96254.66;103795;1276;75535;-50
2023/10/25 11:55:07;;;;;;;6.50;3.60;;;;;;;20.79;64.10;96257.40;103784;1280;66546;-48
2023/10/25 11:57:38;;;;;;;7.80;3.20;;;;;;;20.74;64.27;96247.48;103532;1277;72767;-46
2023/10/25 12:00:08;;;;;;;8.10;3.50;;;;;;;20.72;64.42;96249.45;105771;1277;61310;-52
2023/10/25 12:02:38;;;;;;;6.00;3.60;;;;;;;20.69;64.62;96247.99;103849;1276;61291;-50
2023/10/25 12:05:05;;;;;;;4.60;2.90;;;;;;;20.67;64.64;96252.50;104183;1280;74757;-53
2023/10/25 12:07:32;;;;;;;6.50;3.50;;;;;;;20.64;64.74;96251.89;105418;1277;65465;-46
2023/10/25 12:09:59;;;;;;;6.90;3.60;;;;;;;20.63;64.59;96250.35;107321;1276;71722;-46
2023/10/25 12:12:25;;;;;;;7.10;2.80;;;;;;;20.62;64.63;96247.71;106126;1278;61375;-46
2023/10/25 12:14:52;;;;;;;8.80;3.40;;;;;;;20.61;64.58;96244.84;103770;1278;61384;-44
2023/10/25 12:17:19;;;;;;;7.90;3.60;;;;;;;20.59;64.56;96251.13;103715;1277;74351;-44
2023/10/25 12:19:48;;;;;;;5.10;3.20;;;;;;;20.58;64.54;96249.43;103729;1277;66414;-45
2023/10/25 12:22:15;;;;;;;4.40;3.00;;;;;;;20.57;64.50;96246.17;103942;1276;73304;-43
2023/10/25 12:24:42;;;;;;;4.10;2.90;;;;;;;20.56;64.55;96252.48;103945;1280;61277;-42
2023/10/25 12:27:11;;;;;;;4.80;3.20;;;;;;;20.55;64.43;96251.70;104030;1280;61294;-45
2023/10/25 12:29:38;;;;;;;5.60;3.10;;;;;;;20.54;64.47;96247.83;103928;1276;74726;-46
2023/10/25 12:32:06;;;;;;;4.20;3.10;;;;;;;20.53;64.42;96250.62;103951;1279;65127;-41
2023/10/25 12:34:33;;;;;;;4.60;3.20;;;;;;;20.52;64.29;96251.09;103684;1278;73536;-45
2023/10/25 12:36:59;;;;;;;4.50;3.10;;;;;;;20.51;64.34;96251.25;103781;1280;61358;-48
2023/10/25 12:39:26;;;;;;;4.60;2.90;;;;;;;20.49;64.25;96250.58;103765;1277;61606;-50
2023/10/25 12:41:53;;;;;;;4.60;3.20;;;;;;;20.46;64.42;96247.39;103746;1280;74664;-52
2023/10/25 12:44:20;;;;;;;5.30;3.40;;;;;;;20.43;64.51;96243.91;103924;1280;65902;-50
2023/10/25 12:46:47;;;;;;;10.40;3.70;;;;;;;20.41;64.27;96248.89;103838;1276;72543;-48
2023/10/25 12:49:15;;;;;;;6.10;4.30;;;;;;;20.38;64.11;96249.37;103853;1280;61291;-51
2023/10/25 12:51:42;;;;;;;6.30;4.10;;;;;;;20.34;63.98;96251.79;103796;1276;61352;-56
2023/10/25 12:54:08;;;;;;;7.20;4.00;;;;;;;20.30;64.10;96254.76;103766;1277;76459;-48
2023/10/25 12:56:37;;;;;;;5.30;4.30;;;;;;;20.27;64.30;96254.70;103796;1280;66158;-54
2023/10/25 12:59:04;;;;;;;9.20;4.00;;;;;;;20.26;64.37;96257.66;103775;1277;72979;-51